createdAt,value
2023-03-10T00:01:59.444Z,-0.40
2023-03-10T00:04:29.728Z,-0.20
2023-03-10T00:07:01.521Z,0.00
2023-03-10T00:09:37.146Z,0.10
2023-03-10T00:12:08.513Z,0.20
2023-03-10T00:14:38.724Z,0.20
2023-03-10T00:17:09.260Z,0.30
2023-03-10T00:19:39.397Z,0.30
2023-03-10T00:22:11.605Z,0.40
2023-03-10T00:24:42.456Z,0.40
2023-03-10T00:27:12.515Z,0.40
2023-03-10T00:29:42.629Z,0.40
2023-03-10T00:32:13.201Z,0.50
2023-03-10T00:34:44.594Z,0.50
2023-03-10T00:37:17.739Z,0.50
2023-03-10T00:39:48.180Z,0.50
2023-03-10T00:42:18.572Z,0.50
2023-03-10T00:44:51.363Z,0.50
2023-03-10T00:47:22.051Z,0.50
2023-03-10T00:49:52.447Z,0.50
2023-03-10T00:52:24.255Z,0.60
2023-03-10T00:54:54.441Z,0.60
2023-03-10T00:57:25.563Z,0.60
2023-03-10T00:59:56.205Z,0.60
2023-03-10T01:02:26.404Z,0.60
2023-03-10T01:04:56.499Z,0.50
2023-03-10T01:07:28.235Z,0.60
2023-03-10T01:09:58.592Z,0.60
2023-03-10T01:12:28.773Z,0.50
2023-03-10T01:14:58.829Z,0.50
2023-03-10T01:17:29.078Z,0.40
2023-03-10T01:19:59.273Z,0.40
2023-03-10T01:22:30.964Z,0.30
2023-03-10T01:25:01.090Z,0.30
2023-03-10T01:27:31.221Z,0.20
2023-03-10T01:30:01.520Z,0.10
2023-03-10T01:32:32.348Z,0.10
2023-03-10T01:35:02.529Z,0.00
2023-03-10T01:37:34.663Z,0.00
2023-03-10T01:40:06.635Z,0.00
2023-03-10T01:42:36.969Z,0.00
2023-03-10T01:45:09.688Z,0.00
2023-03-10T01:47:40.864Z,0.00
2023-03-10T01:50:16.042Z,0.00
2023-03-10T01:52:57.227Z,0.10
2023-03-10T01:55:30.473Z,0.10
2023-03-10T01:58:01.300Z,0.10
2023-03-10T02:00:31.836Z,0.10
2023-03-10T02:03:09.801Z,0.10
2023-03-10T02:05:43.995Z,0.00
2023-03-10T02:08:17.110Z,0.00
2023-03-10T02:10:48.158Z,0.00
2023-03-10T02:13:18.405Z,-0.10
2023-03-10T02:15:49.208Z,-0.10
2023-03-10T02:18:20.525Z,-0.20
2023-03-10T02:20:57.892Z,-0.30
2023-03-10T02:23:41.181Z,-0.30
2023-03-10T02:26:24.915Z,-0.40
2023-03-10T02:28:59.397Z,-0.40
2023-03-10T02:31:30.291Z,-0.50
2023-03-10T02:34:00.786Z,-0.60
2023-03-10T02:36:30.897Z,-0.70
2023-03-10T02:39:01.211Z,-0.80
2023-03-10T02:41:34.224Z,-0.90
2023-03-10T02:44:10.071Z,-0.90
2023-03-10T02:46:40.438Z,-1.00
2023-03-10T02:49:13.170Z,-1.00
2023-03-10T02:51:46.482Z,-1.10
2023-03-10T02:54:17.090Z,-1.30
2023-03-10T02:56:47.791Z,-1.40
2023-03-10T02:59:19.541Z,-1.70
2023-03-10T03:01:49.634Z,-1.80
2023-03-10T03:04:19.859Z,-2.00
2023-03-10T03:06:50.202Z,-2.10
2023-03-10T03:09:20.339Z,-2.30
2023-03-10T03:11:50.453Z,-2.50
2023-03-10T03:14:22.337Z,-2.70
2023-03-10T03:16:52.551Z,-2.90
2023-03-10T03:19:22.780Z,-3.10
2023-03-10T03:21:52.839Z,-3.20
2023-03-10T03:24:23.363Z,-3.30
2023-03-10T03:26:53.557Z,-3.40
2023-03-10T03:29:25.365Z,-3.50
2023-03-10T03:31:55.512Z,-3.60
2023-03-10T03:34:25.809Z,-3.70
2023-03-10T03:36:55.963Z,-3.60
2023-03-10T03:39:26.246Z,-3.70
2023-03-10T03:41:58.440Z,-3.70
2023-03-10T03:44:30.324Z,-3.80
2023-03-10T03:47:00.476Z,-3.90
2023-03-10T03:49:30.828Z,-3.90
2023-03-10T03:52:01.286Z,-3.90
2023-03-10T03:54:31.458Z,-3.90
2023-03-10T03:57:02.213Z,-3.90
2023-03-10T03:59:33.972Z,-3.90
2023-03-10T04:02:04.824Z,-4.00
2023-03-10T04:04:35.123Z,-4.00
2023-03-10T04:07:05.270Z,-4.20
2023-03-10T04:09:35.396Z,-4.30
2023-03-10T04:12:05.599Z,-4.40
2023-03-10T04:14:37.827Z,-4.50
2023-03-10T04:17:09.749Z,-4.50
2023-03-10T04:19:41.362Z,-4.50
2023-03-10T04:22:11.481Z,-4.50
2023-03-10T04:24:41.748Z,-4.40
2023-03-10T04:27:12.290Z,-4.60
2023-03-10T04:29:44.210Z,-4.70
2023-03-10T04:32:14.343Z,-4.80
2023-03-10T04:34:44.590Z,-4.90
2023-03-10T04:37:14.704Z,-5.00
2023-03-10T04:39:44.965Z,-5.10
2023-03-10T04:42:15.049Z,-5.20
2023-03-10T04:44:47.609Z,-5.40
2023-03-10T04:47:17.813Z,-5.40
2023-03-10T04:49:48.119Z,-5.40
2023-03-10T04:52:18.188Z,-5.40
2023-03-10T04:54:48.309Z,-5.30
2023-03-10T04:57:18.984Z,-5.10
2023-03-10T04:59:53.964Z,-5.00
2023-03-10T05:02:24.068Z,-5.10
2023-03-10T05:04:54.177Z,-5.10
2023-03-10T05:07:24.346Z,-5.10
2023-03-10T05:09:54.486Z,-5.00
2023-03-10T05:12:24.598Z,-5.00
2023-03-10T05:14:56.530Z,-5.00
2023-03-10T05:17:28.161Z,-5.00
2023-03-10T05:19:58.581Z,-4.80
2023-03-10T05:22:28.703Z,-4.90
2023-03-10T05:24:58.828Z,-4.90
2023-03-10T05:27:29.029Z,-4.90
2023-03-10T05:30:00.999Z,-4.90
2023-03-10T05:32:31.337Z,-5.00
2023-03-10T05:35:01.714Z,-5.10
2023-03-10T05:37:32.992Z,-5.10
2023-03-10T05:40:03.533Z,-5.10
2023-03-10T05:42:33.966Z,-5.00
2023-03-10T05:45:06.103Z,-4.80
2023-03-10T05:47:36.708Z,-4.70
2023-03-10T05:50:08.402Z,-4.70
2023-03-10T05:52:40.393Z,-4.80
2023-03-10T05:55:13.546Z,-4.90
2023-03-10T05:57:44.072Z,-5.00
2023-03-10T06:00:18.693Z,-5.20
2023-03-10T06:02:48.826Z,-5.20
2023-03-10T06:05:18.953Z,-5.10
2023-03-10T06:07:49.203Z,-5.00
2023-03-10T06:10:19.344Z,-5.10
2023-03-10T06:12:49.397Z,-5.10
2023-03-10T06:15:21.226Z,-5.30
2023-03-10T06:17:51.358Z,-5.30
2023-03-10T06:20:21.731Z,-5.30
2023-03-10T06:22:54.272Z,-5.30
2023-03-10T06:25:24.660Z,-5.30
2023-03-10T06:27:54.763Z,-5.20
2023-03-10T06:30:27.424Z,-5.10
2023-03-10T06:32:57.905Z,-5.10
2023-03-10T06:35:28.805Z,-5.20
2023-03-10T06:37:58.897Z,-5.30
2023-03-10T06:40:29.274Z,-5.30
2023-03-10T06:42:59.456Z,-5.30
2023-03-10T06:45:31.258Z,-5.40
2023-03-10T06:48:01.344Z,-5.50
2023-03-10T06:50:31.853Z,-5.70
2023-03-10T06:53:01.951Z,-5.70
2023-03-10T06:55:32.026Z,-5.80
2023-03-10T06:58:02.458Z,-5.80
2023-03-10T07:00:35.300Z,-5.90
2023-03-10T07:03:05.362Z,-6.00
2023-03-10T07:05:35.542Z,-6.20
2023-03-10T07:08:06.016Z,-6.30
2023-03-10T07:10:36.207Z,-6.50
2023-03-10T07:13:06.438Z,-6.40
2023-03-10T07:15:39.941Z,-6.40
2023-03-10T07:18:10.212Z,-6.60
2023-03-10T07:20:42.994Z,-6.80
2023-03-10T07:23:13.318Z,-6.90
2023-03-10T07:25:43.849Z,-7.00
2023-03-10T07:28:14.057Z,-6.90
2023-03-10T07:30:46.252Z,-7.00
2023-03-10T07:33:16.617Z,-7.20
2023-03-10T07:35:46.784Z,-7.20
2023-03-10T07:38:17.198Z,-7.20
2023-03-10T07:40:47.591Z,-7.20
2023-03-10T07:43:17.695Z,-7.20
2023-03-10T07:45:49.686Z,-7.10
2023-03-10T07:48:19.807Z,-7.00
2023-03-10T07:50:58.467Z,-6.90
2023-03-10T07:53:28.900Z,-6.60
2023-03-10T07:55:59.507Z,-6.60
2023-03-10T07:58:29.795Z,-6.50
2023-03-10T08:01:02.624Z,-6.40
2023-03-10T08:03:34.756Z,-6.30
2023-03-10T08:06:06.158Z,-6.20
2023-03-10T08:08:36.605Z,-6.10
2023-03-10T08:11:10.355Z,-5.90
2023-03-10T08:13:41.784Z,-5.90
2023-03-10T08:16:14.444Z,-5.90
2023-03-10T08:18:45.585Z,-5.90
2023-03-10T08:21:15.988Z,-6.00
2023-03-10T08:23:46.076Z,-6.00
2023-03-10T08:26:18.782Z,-6.00
2023-03-10T08:28:49.714Z,-6.10
2023-03-10T08:31:23.123Z,-6.10
2023-03-10T08:33:57.040Z,-6.10
2023-03-10T08:36:28.789Z,-6.10
2023-03-10T08:39:00.294Z,-6.10
2023-03-10T08:41:32.845Z,-6.20
2023-03-10T08:44:03.332Z,-6.20
2023-03-10T08:46:36.458Z,-6.20
2023-03-10T08:49:06.586Z,-6.30
2023-03-10T08:51:36.710Z,-6.30
2023-03-10T08:54:07.448Z,-6.30
2023-03-10T08:56:37.742Z,-6.30
2023-03-10T08:59:08.105Z,-6.20
2023-03-10T09:01:40.394Z,-6.30
2023-03-10T09:04:11.972Z,-6.20
2023-03-10T09:06:42.702Z,-6.20
2023-03-10T09:09:13.741Z,-6.30
2023-03-10T09:11:44.061Z,-6.20
2023-03-10T09:14:17.289Z,-6.10
2023-03-10T09:16:49.527Z,-6.10
2023-03-10T09:19:19.744Z,-6.00
2023-03-10T09:21:49.910Z,-6.00
2023-03-10T09:24:20.223Z,-6.10
2023-03-10T09:26:50.419Z,-6.20
2023-03-10T09:29:23.116Z,-6.20
2023-03-10T09:32:01.927Z,-6.20
2023-03-10T09:34:32.096Z,-6.30
2023-03-10T09:37:02.603Z,-6.40
2023-03-10T09:39:34.738Z,-6.40
2023-03-10T09:42:36.947Z,-6.40
2023-03-10T09:45:27.646Z,-6.50
2023-03-10T09:48:13.879Z,-6.60
2023-03-10T09:50:46.829Z,-6.70
2023-03-10T09:53:38.640Z,-6.80
2023-03-10T09:56:14.988Z,-6.90
2023-03-10T09:58:48.814Z,-6.90
2023-03-10T10:01:22.330Z,-6.90
2023-03-10T10:03:56.602Z,-6.90
2023-03-10T10:06:29.100Z,-7.00
2023-03-10T10:09:05.085Z,-7.00
2023-03-10T10:11:37.195Z,-7.00
2023-03-10T10:14:28.223Z,-7.00
2023-03-10T10:17:08.212Z,-7.00
2023-03-10T10:19:41.989Z,-7.10
2023-03-10T10:22:20.415Z,-7.10
2023-03-10T10:25:11.444Z,-7.20
2023-03-10T10:27:43.545Z,-7.10
2023-03-10T10:30:37.155Z,-7.10
2023-03-10T10:33:09.326Z,-7.00
2023-03-10T10:35:43.235Z,-7.00
2023-03-10T10:38:26.036Z,-7.00
2023-03-10T10:41:07.322Z,-7.00
2023-03-10T10:43:44.859Z,-7.10
2023-03-10T10:46:18.469Z,-7.10
2023-03-10T10:48:51.605Z,-7.20
2023-03-10T10:51:29.498Z,-7.20
2023-03-10T10:54:00.978Z,-7.30
2023-03-10T10:56:31.834Z,-7.30
2023-03-10T10:59:09.374Z,-7.40
2023-03-10T11:01:54.939Z,-7.50
2023-03-10T11:04:26.507Z,-7.60
2023-03-10T11:07:14.684Z,-7.70
2023-03-10T11:09:45.124Z,-7.80
2023-03-10T11:12:22.669Z,-7.90
2023-03-10T11:15:20.575Z,-8.00
2023-03-10T11:17:55.741Z,-8.00
2023-03-10T11:20:29.600Z,-8.00
2023-03-10T11:23:14.525Z,-8.00
2023-03-10T11:25:49.747Z,-8.10
2023-03-10T11:28:43.445Z,-8.10
2023-03-10T11:31:28.496Z,-8.10
2023-03-10T11:34:12.780Z,-8.10
2023-03-10T11:36:56.383Z,-8.10
2023-03-10T11:39:42.280Z,-8.10
2023-03-10T11:42:19.287Z,-7.90
2023-03-10T11:45:01.839Z,-7.90
2023-03-10T11:47:44.595Z,-7.80
2023-03-10T11:50:27.961Z,-7.70
2023-03-10T11:53:01.951Z,-7.50
2023-03-10T11:55:34.581Z,-7.30
2023-03-10T11:58:08.233Z,-7.20
2023-03-10T12:00:43.055Z,-7.10
2023-03-10T12:03:21.803Z,-7.20
2023-03-10T12:05:55.300Z,-7.10
2023-03-10T12:08:30.275Z,-6.90
2023-03-10T12:11:04.880Z,-6.70
2023-03-10T12:13:45.567Z,-6.60
2023-03-10T12:16:20.180Z,-6.40
2023-03-10T12:18:50.505Z,-6.30
2023-03-10T12:21:23.228Z,-6.20
2023-03-10T12:23:54.884Z,-6.00
2023-03-10T12:26:58.613Z,-5.70
2023-03-10T12:29:42.176Z,-5.30
2023-03-10T12:32:44.956Z,-5.00
2023-03-10T12:35:51.346Z,-4.70
2023-03-10T12:38:44.643Z,-4.40
2023-03-10T12:41:16.503Z,-4.20
2023-03-10T12:43:55.812Z,-3.90
2023-03-10T12:46:44.787Z,-3.60
2023-03-10T12:49:27.283Z,-3.40
2023-03-10T12:52:02.403Z,-3.00
2023-03-10T12:55:14.205Z,-2.70
2023-03-10T12:57:52.736Z,-2.50
2023-03-10T13:00:31.991Z,-2.20
2023-03-10T13:03:06.698Z,-1.90
2023-03-10T13:05:39.968Z,-1.70
2023-03-10T13:08:18.814Z,-1.50
2023-03-10T13:10:54.136Z,-1.30
2023-03-10T13:13:27.405Z,-1.00
2023-03-10T13:16:02.204Z,-0.80
2023-03-10T13:18:34.916Z,-0.80
2023-03-10T13:21:05.020Z,-0.60
2023-03-10T13:23:36.999Z,-0.60
2023-03-10T13:26:09.138Z,-0.50
2023-03-10T13:28:39.555Z,-0.60
2023-03-10T13:31:20.465Z,-0.50
2023-03-10T13:33:54.271Z,-0.30
2023-03-10T13:36:34.005Z,-0.10
2023-03-10T13:39:05.828Z,0.20
2023-03-10T13:41:38.043Z,0.40
2023-03-10T13:44:08.900Z,0.40
2023-03-10T13:46:39.236Z,0.10
2023-03-10T13:49:18.213Z,-0.40
2023-03-10T13:51:56.606Z,-0.60
2023-03-10T13:54:28.230Z,-0.50
2023-03-10T13:57:01.360Z,-0.50
2023-03-10T13:59:33.450Z,-0.60
2023-03-10T14:02:07.003Z,-0.30
2023-03-10T14:04:59.805Z,-0.10
2023-03-10T14:07:31.322Z,0.20
2023-03-10T14:10:16.698Z,0.30
2023-03-10T14:12:48.168Z,0.30
2023-03-10T14:15:26.564Z,0.60
2023-03-10T14:18:20.786Z,0.60
2023-03-10T14:20:52.600Z,0.60
2023-03-10T14:23:30.802Z,0.50
2023-03-10T14:26:01.780Z,0.40
2023-03-10T14:28:34.322Z,0.40
2023-03-10T14:31:06.645Z,0.40
2023-03-10T14:33:37.658Z,0.50
2023-03-10T14:36:12.927Z,0.30
2023-03-10T14:38:44.973Z,0.20
2023-03-10T14:41:15.988Z,0.30
2023-03-10T14:43:46.182Z,0.40
2023-03-10T14:46:16.405Z,0.30
2023-03-10T14:48:46.901Z,0.00
2023-03-10T14:51:34.360Z,0.10
2023-03-10T14:54:05.628Z,0.00
2023-03-10T14:56:37.631Z,0.10
2023-03-10T14:59:09.931Z,0.40
2023-03-10T15:01:40.282Z,0.40
2023-03-10T15:04:17.188Z,0.40
2023-03-10T15:06:48.913Z,0.70
2023-03-10T15:09:20.491Z,0.80
2023-03-10T15:11:50.676Z,0.90
2023-03-10T15:14:22.237Z,0.80
2023-03-10T15:16:52.331Z,1.00
2023-03-10T15:19:25.416Z,1.10
2023-03-10T15:21:57.523Z,1.50
2023-03-10T15:24:28.168Z,1.40
2023-03-10T15:26:58.444Z,1.50
2023-03-10T15:29:28.628Z,1.20
2023-03-10T15:31:58.764Z,1.40
2023-03-10T15:34:28.954Z,1.50
2023-03-10T15:37:01.696Z,1.40
2023-03-10T15:39:33.475Z,1.60
2023-03-10T15:42:05.057Z,1.70
2023-03-10T15:44:35.315Z,1.70
2023-03-10T15:47:05.514Z,1.80
2023-03-10T15:49:35.844Z,2.10
2023-03-10T15:52:08.208Z,2.40
2023-03-10T15:54:40.095Z,2.70
2023-03-10T15:57:10.826Z,2.80
2023-03-10T15:59:59.496Z,2.90
2023-03-10T16:02:29.617Z,2.40
2023-03-10T16:04:59.804Z,1.80
2023-03-10T16:07:31.546Z,1.70
2023-03-10T16:10:01.922Z,1.70
2023-03-10T16:12:32.144Z,1.50
2023-03-10T16:15:02.673Z,1.90
2023-03-10T16:17:32.800Z,2.30
2023-03-10T16:20:07.624Z,2.30
2023-03-10T16:22:41.165Z,2.90
2023-03-10T16:25:14.318Z,3.10
2023-03-10T16:27:44.902Z,3.40
2023-03-10T16:30:19.069Z,3.50
2023-03-10T16:32:50.642Z,3.40
2023-03-10T16:35:22.344Z,3.30
2023-03-10T16:37:53.985Z,3.50
2023-03-10T16:40:24.325Z,3.30
2023-03-10T16:42:54.544Z,3.30
2023-03-10T16:45:24.736Z,3.00
2023-03-10T16:47:54.794Z,3.00
2023-03-10T16:50:25.120Z,2.70
2023-03-10T16:52:57.337Z,2.40
2023-03-10T16:55:27.531Z,2.80
2023-03-10T16:57:59.134Z,3.00
2023-03-10T17:00:30.059Z,2.90
2023-03-10T17:03:00.305Z,3.00
2023-03-10T17:05:30.440Z,3.50
2023-03-10T17:08:03.763Z,3.40
2023-03-10T17:10:34.459Z,3.60
2023-03-10T17:13:04.583Z,3.80
2023-03-10T17:15:34.694Z,3.60
2023-03-10T17:18:05.744Z,3.40
2023-03-10T17:20:36.258Z,3.30
2023-03-10T17:23:07.962Z,3.30
2023-03-10T17:25:39.652Z,3.30
2023-03-10T17:28:09.949Z,3.00
2023-03-10T17:30:42.350Z,3.40
2023-03-10T17:33:12.651Z,3.60
2023-03-10T17:35:42.817Z,3.80
2023-03-10T17:38:14.859Z,4.20
2023-03-10T17:40:45.579Z,4.20
2023-03-10T17:43:32.965Z,4.00
2023-03-10T17:46:05.564Z,3.80
2023-03-10T17:48:36.455Z,3.40
2023-03-10T17:51:06.775Z,3.80
2023-03-10T17:53:38.593Z,4.10
2023-03-10T17:56:09.847Z,3.90
2023-03-10T17:58:48.523Z,3.90
2023-03-10T18:01:20.700Z,4.50
2023-03-10T18:03:51.145Z,4.70
2023-03-10T18:06:23.238Z,4.90
2023-03-10T18:08:56.576Z,5.00
2023-03-10T18:11:27.886Z,4.50
2023-03-10T18:13:58.223Z,4.30
2023-03-10T18:16:30.063Z,4.20
2023-03-10T18:19:01.486Z,4.80
2023-03-10T18:21:31.919Z,5.40
2023-03-10T18:24:04.234Z,6.00
2023-03-10T18:26:34.472Z,5.90
2023-03-10T18:29:05.030Z,6.90
2023-03-10T18:31:36.533Z,6.60
2023-03-10T18:34:07.314Z,6.60
2023-03-10T18:36:37.639Z,6.30
2023-03-10T18:39:09.531Z,5.60
2023-03-10T18:41:39.870Z,4.80
2023-03-10T18:44:10.067Z,3.90
2023-03-10T18:46:40.533Z,3.30
2023-03-10T18:49:11.445Z,3.00
2023-03-10T18:51:41.668Z,3.00
2023-03-10T18:54:13.312Z,2.90
2023-03-10T18:56:43.676Z,3.00
2023-03-10T18:59:14.129Z,3.20
2023-03-10T19:01:44.420Z,3.60
2023-03-10T19:04:14.506Z,3.90
2023-03-10T19:06:44.684Z,4.10
2023-03-10T19:09:19.844Z,4.10
2023-03-10T19:11:50.811Z,3.70
2023-03-10T19:14:21.131Z,3.40
2023-03-10T19:16:51.987Z,3.30
2023-03-10T19:19:22.607Z,2.80
2023-03-10T19:21:52.763Z,2.70
2023-03-10T19:24:38.462Z,2.70
2023-03-10T19:27:09.058Z,2.90
2023-03-10T19:29:39.162Z,3.10
2023-03-10T19:32:09.914Z,3.20
2023-03-10T19:34:40.138Z,3.00
2023-03-10T19:37:10.505Z,3.20
2023-03-10T19:39:42.403Z,3.30
2023-03-10T19:42:13.217Z,3.00
2023-03-10T19:44:43.292Z,2.90
2023-03-10T19:47:13.523Z,3.00
2023-03-10T19:49:43.596Z,3.30
2023-03-10T19:52:13.767Z,3.10
2023-03-10T19:54:45.476Z,3.20
2023-03-10T19:57:15.757Z,3.00
2023-03-10T19:59:46.173Z,2.90
2023-03-10T20:02:18.495Z,3.00
2023-03-10T20:04:49.676Z,2.90
2023-03-10T20:07:20.127Z,3.10
2023-03-10T20:09:52.721Z,3.20
2023-03-10T20:12:23.073Z,3.70
2023-03-10T20:14:57.618Z,3.90
2023-03-10T20:17:27.811Z,3.70
2023-03-10T20:19:57.939Z,3.60
2023-03-10T20:22:28.413Z,3.00
2023-03-10T20:25:01.407Z,2.90
2023-03-10T20:27:31.525Z,2.90
2023-03-10T20:30:02.042Z,3.00
2023-03-10T20:32:36.417Z,2.70
2023-03-10T20:35:07.532Z,2.60
2023-03-10T20:37:39.218Z,2.50
2023-03-10T20:40:13.896Z,2.50
2023-03-10T20:42:44.037Z,2.10
2023-03-10T20:45:14.805Z,2.20
2023-03-10T20:47:44.903Z,2.30
2023-03-10T20:50:15.890Z,2.30
2023-03-10T20:52:46.397Z,2.30
2023-03-10T20:55:21.879Z,2.30
2023-03-10T20:57:54.544Z,2.10
2023-03-10T21:00:27.944Z,1.90
2023-03-10T21:02:59.260Z,1.80
2023-03-10T21:05:30.820Z,1.70
2023-03-10T21:08:01.074Z,1.80
2023-03-10T21:10:32.794Z,1.60
2023-03-10T21:13:03.389Z,1.50
2023-03-10T21:15:34.251Z,1.00
2023-03-10T21:18:04.386Z,1.10
2023-03-10T21:20:36.634Z,1.00
2023-03-10T21:23:06.782Z,1.00
2023-03-10T21:25:38.824Z,0.80
2023-03-10T21:28:09.880Z,0.80
2023-03-10T21:30:40.498Z,0.70
2023-03-10T21:33:10.768Z,0.70
2023-03-10T21:35:41.078Z,0.70
2023-03-10T21:38:12.144Z,0.50
2023-03-10T21:40:43.884Z,0.40
2023-03-10T21:43:14.284Z,0.30
2023-03-10T21:45:44.365Z,0.20
2023-03-10T21:48:14.846Z,0.10
2023-03-10T21:50:44.913Z,0.00
2023-03-10T21:53:15.471Z,-0.10
2023-03-10T21:55:47.320Z,-0.20
2023-03-10T21:58:17.859Z,-0.30
2023-03-10T22:00:48.090Z,-0.40
2023-03-10T22:03:18.321Z,-0.50
2023-03-10T22:05:49.580Z,-0.60
2023-03-10T22:08:19.825Z,-0.80
2023-03-10T22:10:51.631Z,-0.90
2023-03-10T22:13:21.832Z,-1.10
2023-03-10T22:15:52.044Z,-1.20
2023-03-10T22:18:22.175Z,-1.30
2023-03-10T22:20:52.302Z,-1.40
2023-03-10T22:23:22.472Z,-1.40
2023-03-10T22:25:54.230Z,-1.50
2023-03-10T22:28:24.446Z,-1.70
2023-03-10T22:30:54.583Z,-1.80
2023-03-10T22:33:24.722Z,-1.90
2023-03-10T22:35:54.864Z,-2.10
2023-03-10T22:38:25.073Z,-2.20
2023-03-10T22:40:56.753Z,-2.30
2023-03-10T22:43:27.234Z,-2.50
2023-03-10T22:45:59.881Z,-2.60
2023-03-10T22:48:30.020Z,-2.70
2023-03-10T22:51:00.136Z,-2.80
2023-03-10T22:53:30.344Z,-3.00
2023-03-10T22:56:02.166Z,-3.10
2023-03-10T22:58:32.531Z,-3.20
2023-03-10T23:01:02.851Z,-3.30
2023-03-10T23:03:33.145Z,-3.40
2023-03-10T23:06:07.381Z,-3.50
2023-03-10T23:08:38.564Z,-3.60
2023-03-10T23:11:20.141Z,-3.60
2023-03-10T23:13:50.581Z,-3.70
2023-03-10T23:16:20.889Z,-3.80
2023-03-10T23:18:51.217Z,-3.90
2023-03-10T23:21:21.366Z,-3.90
2023-03-10T23:23:52.174Z,-3.90
2023-03-10T23:26:24.133Z,-4.00
2023-03-10T23:28:54.414Z,-4.10
2023-03-10T23:31:24.614Z,-4.00
2023-03-10T23:33:54.784Z,-4.10
2023-03-10T23:36:25.130Z,-4.20
2023-03-10T23:38:55.242Z,-4.20
2023-03-10T23:41:26.988Z,-4.20
2023-03-10T23:43:57.210Z,-4.20
2023-03-10T23:46:27.293Z,-4.30
2023-03-10T23:48:58.048Z,-4.30
2023-03-10T23:51:29.776Z,-4.40
2023-03-10T23:54:00.014Z,-4.40
2023-03-10T23:56:31.784Z,-4.50
2023-03-10T23:59:02.112Z,-4.30
